This is the latest recevied weather packets stored in our database for station/object SQ2LXT-10. If no packets are shown the sender has not sent any weather packets the latest 10 day(s).
| Time | Temp. | Humidity | Pressure | Rain* | Wind** | Luminosity | Snow |
|---|---|---|---|---|---|---|---|
| 1777473901 | 9.44° C | 33% | 1024.3 hPa | - | - | - | - |
| 1777473001 | 9.44° C | 32% | 1024.2 hPa | - | - | - | - |
| 1777472101 | 9.44° C | 31% | 1024.2 hPa | - | - | - | - |
| 1777471201 | 9.44° C | 33% | 1024.3 hPa | - | - | - | - |
| 1777470301 | 10.56° C | 32% | 1024.3 hPa | - | - | - | - |
| 1777469401 | 9.44° C | 33% | 1024.4 hPa | - | - | - | - |
| 1777468501 | 10.56° C | 32% | 1024.3 hPa | - | - | - | - |
| 1777467601 | 9.44° C | 34% | 1024.6 hPa | - | - | - | - |
| 1777466701 | 8.89° C | 34% | 1024.5 hPa | - | - | - | - |
| 1777465801 | 10.56° C | 32% | 1024.5 hPa | - | - | - | - |
| 1777464901 | 9.44° C | 35% | 1024.5 hPa | - | - | - | - |
| 1777464001 | 10.56° C | 31% | 1024.4 hPa | - | - | - | - |
| 1777463101 | 10.56° C | 33% | 1024.5 hPa | - | - | - | - |
| 1777462201 | 10° C | 33% | 1024.6 hPa | - | - | - | - |
| 1777461301 | 9.44° C | 35% | 1024.6 hPa | - | - | - | - |
| 1777460404 | 8.89° C | 38% | 1024.7 hPa | - | - | - | - |
| 1777459500 | 10° C | 36% | 1024.7 hPa | - | - | - | - |
| 1777458600 | 8.89° C | 38% | 1024.8 hPa | - | - | - | - |
| 1777457700 | 8.89° C | 38% | 1024.7 hPa | - | - | - | - |
| 1777456800 | 9.44° C | 37% | 1024.6 hPa | - | - | - | - |
| 1777455903 | 7.22° C | 41% | 1024.8 hPa | - | - | - | - |
| 1777455000 | 7.78° C | 41% | 1024.6 hPa | - | - | - | - |
| 1777454100 | 8.89° C | 38% | 1024.6 hPa | - | - | - | - |
| 1777453200 | 7.78° C | 40% | 1024.7 hPa | - | - | - | - |
| 1777452300 | 7.78° C | 38% | 1024.8 hPa | - | - | - | - |
* Rain since midnight (hover to see other rain measurements)
** Current wind speed in m/s (hover to see current wind gust speed)